ZKG weather

Public forecast

Using degrees Celsius for public forecast. Weather courtesy of forecast.io.

Closest aviation weather report (METAR) to Kegaska Airport

Closest report is Natashquan Airport, 20.1 nm (37.3 km) W. Retrieved 2020/08/14 04:00 UTC (44 minutes ago):

CYNA 140400Z AUTO 01011KT 9SM CLR 17/13 A3002 RMK SLP168 DENSITY ALT 100FT

Closest aviation forecast (TAF) to Kegaska Airport

Closest forecast is Natashquan Airport, 20.1 nm (37.3 km) W. Retrieved 2020-08-14 02:00 UTC (3 hours ago):

TAF CYNA 140138Z 1402/1414 36008KT P6SM -SHRA SCT015 BKN050 TEMPO 1402/1407 5SM -SHRA BR BKN015 BKN050 FM140700 02012G22KT P6SM BKN020 FM141200 03010G20KT P6SM BKN025 RMK FCST BASED ON AUTO OBS NXT FCST BY 140800Z